Time;durP1;ratioP1;P1;durP2;ratioP2;P2;SDS_P1;SDS_P2;PMS_P1;PMS_P2;Temp;Humidity;BMP_temperature;BMP_pressure;BME280_temperature;BME280_humidity;BME280_pressure;Samples;Min_cycle;Max_cycle;Signal;HPM_P1;HPM_P2
2022/05/02 00:01:28;;;;;;;7.40;5.80;;;13.50;80.30;;;;;;4991672;28;20194;-77
2022/05/02 00:03:53;;;;;;;6.27;5.67;;;13.50;80.70;;;;;;4991836;28;20610;-76
2022/05/02 00:06:19;;;;;;;6.90;5.50;;;13.40;80.90;;;;;;4991804;28;20179;-77
2022/05/02 00:08:45;;;;;;;6.50;5.73;;;13.40;81.00;;;;;;4991395;28;20270;-76
2022/05/02 00:11:10;;;;;;;7.13;5.67;;;13.40;81.40;;;;;;4991310;28;20546;-77
2022/05/02 00:13:36;;;;;;;9.50;5.90;;;13.30;81.50;;;;;;4994473;28;20253;-77
2022/05/02 00:16:02;;;;;;;6.80;6.10;;;13.30;81.70;;;;;;4995171;28;20174;-77
2022/05/02 00:18:28;;;;;;;6.60;5.70;;;13.20;82.70;;;;;;4995056;28;20610;-77
2022/05/02 00:20:54;;;;;;;6.25;5.65;;;13.10;81.80;;;;;;4994964;28;20179;-77
2022/05/02 00:23:20;;;;;;;6.80;5.30;;;13.10;82.10;;;;;;4995138;28;20706;-77
2022/05/02 00:25:46;;;;;;;5.40;4.90;;;13.00;82.40;;;;;;4991157;23;20193;-73
2022/05/02 00:28:14;;;;;;;7.07;6.35;;;13.00;83.10;;;;;;4986228;28;20519;-76
2022/05/02 00:30:40;;;;;;;6.15;5.55;;;12.90;83.50;;;;;;5014323;28;20179;-73
2022/05/02 00:33:05;;;;;;;5.35;4.85;;;12.90;83.60;;;;;;4981055;28;20630;-73
2022/05/02 00:35:31;;;;;;;6.93;6.20;;;12.80;83.80;;;;;;4996768;28;20181;-76
2022/05/02 00:37:57;;;;;;;7.27;6.10;;;12.80;84.30;;;;;;5002864;28;20217;-73
2022/05/02 00:40:23;;;;;;;6.57;5.80;;;12.70;84.90;;;;;;5013258;28;20221;-76
2022/05/02 00:42:49;;;;;;;9.20;6.40;;;12.70;85.50;;;;;;5014350;28;20162;-73
2022/05/02 00:45:17;;;;;;;7.13;6.43;;;12.70;85.80;;;;;;5014005;28;21127;-75
2022/05/02 00:47:57;;;;;;;6.22;5.68;;;12.70;86.10;;;;;;5013746;28;20542;-73
2022/05/02 00:50:37;;;;;;;6.88;5.40;;;12.70;87.20;;;;;;5014035;28;20565;-76
2022/05/02 00:53:05;;;;;;;9.70;5.95;;;12.60;87.70;;;;;;5014184;28;20525;-73
2022/05/02 00:55:32;;;;;;;7.40;6.43;;;12.60;87.40;;;;;;4996763;28;20185;-73
2022/05/02 00:57:59;;;;;;;6.55;5.85;;;12.60;87.80;;;;;;4996053;28;20209;-73
2022/05/02 01:00:28;;;;;;;9.70;6.90;;;12.70;88.50;;;;;;5013940;28;20224;-76
2022/05/02 01:02:55;;;;;;;8.55;6.75;;;12.70;88.70;;;;;;5014007;28;20197;-73
2022/05/02 01:05:20;;;;;;;7.90;6.13;;;12.70;89.00;;;;;;5014217;28;20580;-74
2022/05/02 01:07:46;;;;;;;7.83;7.13;;;12.70;89.30;;;;;;4995973;28;20604;-74
2022/05/02 01:10:17;;;;;;;9.07;7.00;;;12.70;89.50;;;;;;4996149;28;20173;-73
2022/05/02 01:12:44;;;;;;;7.75;7.05;;;12.80;90.00;;;;;;5013719;28;20249;-73
2022/05/02 01:15:09;;;;;;;8.05;7.25;;;12.80;90.10;;;;;;5014001;28;20525;-73
2022/05/02 01:17:37;;;;;;;8.63;7.73;;;12.80;90.20;;;;;;4995647;28;20257;-74
2022/05/02 01:20:15;;;;;;;7.30;6.55;;;12.90;90.50;;;;;;4995937;28;20576;-74
2022/05/02 01:22:42;;;;;;;7.53;6.53;;;12.90;90.90;;;;;;5013795;28;20170;-73
2022/05/02 01:25:09;;;;;;;7.75;6.90;;;13.00;90.50;;;;;;5012852;28;20209;-74
2022/05/02 01:27:34;;;;;;;6.50;5.90;;;13.00;90.70;;;;;;5012792;28;20237;-74
2022/05/02 01:30:00;;;;;;;8.67;7.70;;;13.00;90.90;;;;;;4995851;28;20197;-74
2022/05/02 01:32:26;;;;;;;6.85;5.75;;;13.10;91.00;;;;;;5013821;28;20556;-74
2022/05/02 01:34:52;;;;;;;6.87;6.07;;;13.10;91.10;;;;;;5013530;28;20166;-74
2022/05/02 01:37:18;;;;;;;6.77;6.10;;;13.10;91.00;;;;;;4995916;28;20197;-74
2022/05/02 01:39:44;;;;;;;7.35;6.22;;;13.20;91.00;;;;;;4995089;28;20197;-73
2022/05/02 01:42:11;;;;;;;6.67;6.07;;;13.20;91.00;;;;;;4995597;28;20170;-73
2022/05/02 01:44:37;;;;;;;6.28;5.68;;;13.20;91.00;;;;;;5013225;28;20638;-73
2022/05/02 01:47:04;;;;;;;7.60;6.90;;;13.20;91.10;;;;;;5013202;28;20179;-73
2022/05/02 01:49:30;;;;;;;8.68;7.80;;;13.20;91.20;;;;;;4995182;28;20646;-73
2022/05/02 01:51:57;;;;;;;6.93;6.23;;;13.30;91.20;;;;;;5013024;28;20175;-73
2022/05/02 01:54:24;;;;;;;7.20;5.75;;;13.20;91.30;;;;;;5013162;28;20171;-73
2022/05/02 01:56:51;;;;;;;6.30;5.72;;;13.20;91.20;;;;;;4995437;28;20202;-73
2022/05/02 01:59:16;;;;;;;7.80;7.10;;;13.30;91.20;;;;;;5012439;28;20194;-74
2022/05/02 02:01:42;;;;;;;7.53;5.80;;;13.20;91.30;;;;;;4995407;28;20177;-73
2022/05/02 02:06:53;;;;;;;7.45;6.57;;;13.20;91.50;;;;;;5012875;28;20182;-74
2022/05/02 02:09:19;;;;;;;6.85;5.88;;;13.20;91.40;;;;;;5012417;28;20597;-73
2022/05/02 02:11:46;;;;;;;8.38;6.10;;;13.20;91.40;;;;;;5012333;28;20254;-73
2022/05/02 02:14:12;;;;;;;8.48;6.82;;;13.20;91.40;;;;;;4995424;28;20542;-73
2022/05/02 02:16:37;;;;;;;6.73;6.13;;;13.20;91.50;;;;;;4978840;28;20212;-73
2022/05/02 02:19:04;;;;;;;7.53;6.80;;;13.20;91.60;;;;;;4994785;28;20937;-73
2022/05/02 02:21:31;;;;;;;6.13;5.53;;;13.10;91.50;;;;;;5012389;28;20225;-73
2022/05/02 02:23:57;;;;;;;8.60;7.00;;;13.10;91.60;;;;;;4995101;28;20167;-73
2022/05/02 02:26:23;;;;;;;8.52;6.85;;;13.10;91.60;;;;;;4994656;28;20253;-73
2022/05/02 02:28:49;;;;;;;7.77;7.10;;;13.10;91.80;;;;;;5011904;28;20170;-73
2022/05/02 02:31:15;;;;;;;6.80;6.17;;;13.10;92.00;;;;;;5012066;28;20177;-73
2022/05/02 02:33:41;;;;;;;8.57;7.77;;;13.10;92.10;;;;;;4995003;28;20192;-73
2022/05/02 02:36:06;;;;;;;7.07;6.47;;;13.10;92.10;;;;;;5012243;28;20593;-72
2022/05/02 02:38:32;;;;;;;7.10;6.40;;;13.10;92.30;;;;;;4994236;28;20732;-73
2022/05/02 02:40:58;;;;;;;7.68;6.97;;;13.10;92.30;;;;;;5011916;28;20159;-73
2022/05/02 02:43:24;;;;;;;8.93;7.13;;;13.10;92.30;;;;;;5012344;28;20177;-73
2022/05/02 02:45:50;;;;;;;8.83;7.07;;;13.10;92.40;;;;;;4994532;28;20688;-73
2022/05/02 02:48:16;;;;;;;8.47;7.57;;;13.10;92.70;;;;;;5011711;28;20634;-73
2022/05/02 02:50:41;;;;;;;8.77;7.80;;;13.20;92.70;;;;;;4994185;28;20170;-73
2022/05/02 02:53:07;;;;;;;8.40;7.00;;;13.10;92.80;;;;;;5012121;28;20278;-73
2022/05/02 02:55:34;;;;;;;6.78;6.07;;;13.10;92.90;;;;;;5011882;28;20178;-73
2022/05/02 02:58:00;;;;;;;8.13;6.70;;;13.10;93.00;;;;;;5011826;28;20194;-73
2022/05/02 03:00:26;;;;;;;8.98;6.57;;;13.10;93.10;;;;;;5012018;28;20178;-73
2022/05/02 03:02:52;;;;;;;7.73;6.97;;;13.10;93.10;;;;;;4994406;28;20802;-73
2022/05/02 03:08:03;;;;;;;7.75;5.95;;;13.10;93.20;;;;;;5011538;28;20174;-72
2022/05/02 03:10:29;;;;;;;7.50;6.65;;;13.10;93.10;;;;;;4993809;28;20189;-72
2022/05/02 03:12:55;;;;;;;9.90;7.90;;;13.10;93.20;;;;;;4994382;28;20170;-72
2022/05/02 03:15:21;;;;;;;8.03;7.23;;;13.10;93.20;;;;;;4994489;28;20929;-73
2022/05/02 03:17:47;;;;;;;8.43;7.63;;;13.10;93.40;;;;;;5011285;28;20605;-72
2022/05/02 03:20:13;;;;;;;8.30;7.50;;;13.10;93.50;;;;;;5011271;28;20571;-73
2022/05/02 03:22:39;;;;;;;8.27;7.50;;;13.00;93.40;;;;;;5011890;28;20553;-74
2022/05/02 03:25:06;;;;;;;6.90;6.20;;;13.00;93.50;;;;;;5011674;28;20171;-74
2022/05/02 03:27:32;;;;;;;7.85;6.82;;;13.00;93.60;;;;;;4993578;28;20720;-74
2022/05/02 03:29:57;;;;;;;8.90;8.00;;;13.00;93.70;;;;;;5011333;28;20257;-73
2022/05/02 03:32:23;;;;;;;7.33;6.43;;;13.00;94.00;;;;;;5011758;28;20170;-73
2022/05/02 03:34:48;;;;;;;8.60;7.03;;;13.00;94.00;;;;;;5011470;28;20170;-73
2022/05/02 03:37:14;;;;;;;7.87;6.83;;;13.00;94.20;;;;;;5011411;28;20663;-73
2022/05/02 03:39:40;;;;;;;10.03;6.70;;;13.00;94.10;;;;;;5010716;28;20198;-73
2022/05/02 03:42:06;;;;;;;7.93;7.13;;;13.00;94.20;;;;;;5011195;28;20578;-73
2022/05/02 03:44:32;;;;;;;7.88;7.07;;;13.00;94.20;;;;;;5011478;28;20646;-73
2022/05/02 03:46:57;;;;;;;9.37;7.80;;;13.00;94.30;;;;;;5011857;28;20194;-73
2022/05/02 03:49:23;;;;;;;8.90;7.97;;;13.00;94.30;;;;;;4997222;28;20178;-73
2022/05/02 03:51:49;;;;;;;8.63;7.63;;;13.00;94.40;;;;;;5015258;28;20638;-73
2022/05/02 03:54:14;;;;;;;7.70;7.00;;;13.00;94.60;;;;;;5015099;28;20178;-73
2022/05/02 03:56:40;;;;;;;8.00;6.93;;;13.00;94.80;;;;;;5015144;28;20911;-72
2022/05/02 03:59:06;;;;;;;8.63;7.73;;;13.00;94.80;;;;;;5014718;28;20198;-73
2022/05/02 04:01:36;;;;;;;8.83;7.13;;;13.00;94.80;;;;;;4997181;28;20174;-73
2022/05/02 04:04:02;;;;;;;8.32;7.53;;;13.00;94.90;;;;;;5015235;28;20171;-73
2022/05/02 04:06:28;;;;;;;9.38;8.48;;;13.00;95.00;;;;;;5014935;28;20190;-73
2022/05/02 04:08:54;;;;;;;8.50;7.70;;;13.00;95.20;;;;;;5014386;28;20175;-73
2022/05/02 04:11:19;;;;;;;9.87;6.53;;;13.10;95.40;;;;;;4997137;28;20170;-73
2022/05/02 04:13:45;;;;;;;9.83;7.80;;;13.10;95.50;;;;;;5015035;28;20170;-73
2022/05/02 04:16:11;;;;;;;9.53;8.63;;;13.10;95.60;;;;;;5014886;28;20913;-73
2022/05/02 04:18:36;;;;;;;9.13;8.27;;;13.20;95.70;;;;;;5014359;28;20307;-73
2022/05/02 04:21:02;;;;;;;8.50;7.70;;;13.20;95.70;;;;;;5014657;28;20171;-73
2022/05/02 04:23:28;;;;;;;9.80;8.80;;;13.20;95.60;;;;;;4980999;28;20236;-73
2022/05/02 04:25:55;;;;;;;7.85;7.03;;;13.20;95.60;;;;;;5014733;28;20612;-73
2022/05/02 04:28:20;;;;;;;8.52;7.63;;;13.20;95.60;;;;;;4996847;28;20167;-74
2022/05/02 04:30:46;;;;;;;8.10;7.20;;;13.20;95.70;;;;;;5014317;28;20178;-74
2022/05/02 04:33:12;;;;;;;9.37;8.30;;;13.20;95.60;;;;;;5014669;28;20252;-74
2022/05/02 04:35:38;;;;;;;11.18;8.13;;;13.20;95.60;;;;;;4995966;28;20173;-73
2022/05/02 04:38:04;;;;;;;9.30;7.13;;;13.20;95.60;;;;;;5002109;28;20194;-73
2022/05/02 04:40:30;;;;;;;9.13;8.20;;;13.20;95.60;;;;;;5014225;28;20217;-74
2022/05/02 04:42:56;;;;;;;13.10;7.57;;;13.20;95.70;;;;;;5014568;28;20980;-73
2022/05/02 04:45:22;;;;;;;9.20;7.73;;;13.20;95.90;;;;;;5014620;28;20248;-73
2022/05/02 04:47:47;;;;;;;9.70;8.63;;;13.10;96.00;;;;;;4996397;28;20664;-74
2022/05/02 04:50:13;;;;;;;8.87;7.70;;;13.20;96.20;;;;;;4996275;28;20158;-74
2022/05/02 04:52:39;;;;;;;10.27;8.93;;;13.20;96.30;;;;;;5014333;28;20166;-73
2022/05/02 04:55:05;;;;;;;8.93;8.13;;;13.20;96.30;;;;;;5014336;28;20185;-74
2022/05/02 04:57:31;;;;;;;8.52;7.72;;;13.20;96.40;;;;;;5013791;28;20221;-74
2022/05/02 04:59:56;;;;;;;8.83;7.87;;;13.20;96.60;;;;;;5012524;28;20272;-74
2022/05/02 05:02:22;;;;;;;12.00;8.60;;;13.20;96.50;;;;;;4996495;28;20167;-74
2022/05/02 05:04:48;;;;;;;9.50;7.85;;;13.30;96.60;;;;;;4995532;28;20171;-74
2022/05/02 05:07:14;;;;;;;8.67;7.77;;;13.30;96.70;;;;;;5014037;28;20520;-74
2022/05/02 05:09:39;;;;;;;10.23;9.33;;;13.30;96.70;;;;;;4995884;28;20637;-74
2022/05/02 05:12:51;;;;;;;10.80;9.80;;;13.20;96.70;;;;;;5014350;28;20190;-74
2022/05/02 05:18:38;;;;;;;8.95;8.00;;;13.30;97.40;;;;;;5013327;28;20610;-74
2022/05/02 05:21:16;;;;;;;11.18;8.07;;;13.40;97.20;;;;;;5013405;28;20256;-74
2022/05/02 05:24:19;;;;;;;9.43;8.52;;;13.40;97.40;;;;;;5013881;28;20516;-74
2022/05/02 05:27:09;;;;;;;9.90;8.93;;;13.40;97.60;;;;;;4996246;28;20202;-74
2022/05/02 05:29:55;;;;;;;8.77;7.97;;;13.50;97.90;;;;;;5013240;28;20547;-74
2022/05/02 05:32:33;;;;;;;10.18;9.00;;;13.50;97.90;;;;;;5013451;28;20174;-74
2022/05/02 05:35:05;;;;;;;10.05;9.00;;;13.60;98.00;;;;;;4980193;28;20538;-74
2022/05/02 05:37:58;;;;;;;10.40;9.40;;;13.70;98.00;;;;;;5007438;28;20198;-74
2022/05/02 05:40:29;;;;;;;12.27;9.38;;;13.80;98.20;;;;;;4993780;28;20183;-74
2022/05/02 05:43:19;;;;;;;10.38;9.48;;;13.80;98.10;;;;;;4994151;28;20274;-75
2022/05/02 05:46:16;;;;;;;10.10;8.57;;;14.00;98.20;;;;;;4960279;28;20195;-75
2022/05/02 05:48:51;;;;;;;9.18;8.27;;;14.00;98.10;;;;;;4993430;28;20263;-74
2022/05/02 05:51:34;;;;;;;11.35;9.70;;;14.10;97.90;;;;;;4976253;28;20179;-73
2022/05/02 05:54:27;;;;;;;12.57;9.05;;;14.10;98.00;;;;;;4976260;28;20229;-73
2022/05/02 05:57:17;;;;;;;9.10;8.23;;;14.20;97.90;;;;;;4975853;28;20525;-73
2022/05/02 05:59:53;;;;;;;9.38;8.40;;;14.20;98.00;;;;;;4992962;28;20203;-73
2022/05/02 06:02:23;;;;;;;10.35;9.35;;;14.30;98.00;;;;;;4992870;28;20514;-72
2022/05/02 06:04:49;;;;;;;8.23;7.43;;;14.40;97.90;;;;;;4978921;28;20171;-73
2022/05/02 06:07:20;;;;;;;10.18;9.18;;;14.40;97.90;;;;;;4992312;28;20202;-72
2022/05/02 06:09:48;;;;;;;10.07;8.95;;;14.40;97.90;;;;;;5000345;28;20607;-73
2022/05/02 06:12:15;;;;;;;8.75;7.75;;;14.50;97.90;;;;;;5012794;28;20206;-75
2022/05/02 06:20:21;;;;;;;9.95;8.95;;;14.60;98.40;;;;;;4975047;28;20183;-72
2022/05/02 06:22:47;;;;;;;9.95;9.05;;;14.70;97.90;;;;;;4992837;28;20531;-72
2022/05/02 06:25:19;;;;;;;9.70;8.73;;;14.70;97.90;;;;;;4983765;28;20194;-72
2022/05/02 06:27:47;;;;;;;10.60;9.50;;;14.80;97.90;;;;;;4996430;28;20210;-80
2022/05/02 06:30:14;;;;;;;10.82;9.77;;;14.80;97.80;;;;;;4972553;28;20179;-80
2022/05/02 06:32:43;;;;;;;9.88;8.88;;;14.90;97.80;;;;;;4983369;28;20643;-78
2022/05/02 06:35:10;;;;;;;10.73;9.23;;;15.00;98.00;;;;;;4982303;28;20174;-79
2022/05/02 06:37:53;;;;;;;15.73;9.55;;;15.00;98.00;;;;;;5005599;28;20190;-79
2022/05/02 06:40:31;;;;;;;11.50;10.40;;;15.10;98.10;;;;;;4968068;28;20187;-79
2022/05/02 06:43:17;;;;;;;11.23;10.13;;;15.20;98.10;;;;;;4961338;28;20624;-79
2022/05/02 06:46:09;;;;;;;10.53;9.33;;;15.40;98.40;;;;;;4976267;28;20245;-80
2022/05/02 06:48:40;;;;;;;10.20;9.13;;;15.80;98.90;;;;;;4993145;28;20571;-80
2022/05/02 06:51:13;;;;;;;10.73;9.50;;;16.30;99.40;;;;;;4975908;28;20567;-79
2022/05/02 06:53:58;;;;;;;10.27;9.27;;;16.90;99.50;;;;;;5011414;28;20910;-79
2022/05/02 06:56:32;;;;;;;11.13;8.50;;;17.50;99.60;;;;;;4996162;28;20604;-80
2022/05/02 06:59:07;;;;;;;8.60;7.80;;;18.60;99.90;;;;;;4974454;28;20773;-80
2022/05/02 07:01:49;;;;;;;11.40;9.10;;;19.60;99.90;;;;;;4985767;28;20736;-79
2022/05/02 07:04:38;;;;;;;7.80;6.73;;;20.60;99.10;;;;;;4993255;28;20916;-79
2022/05/02 07:07:24;;;;;;;8.20;7.50;;;21.70;97.80;;;;;;4996132;28;20709;-80
2022/05/02 07:09:53;;;;;;;6.93;6.20;;;22.80;97.00;;;;;;5008721;28;20584;-80
2022/05/02 07:12:26;;;;;;;9.30;6.03;;;23.90;96.50;;;;;;4989911;28;20586;-80
2022/05/02 07:15:22;;;;;;;7.60;6.90;;;24.90;94.80;;;;;;5000652;28;20582;-80
2022/05/02 07:18:05;;;;;;;6.57;5.97;;;25.90;93.50;;;;;;4955001;28;21185;-80
2022/05/02 07:20:35;;;;;;;7.47;6.77;;;26.90;91.20;;;;;;4983017;28;20586;-80
2022/05/02 07:23:55;;;;;;;5.90;5.20;;;27.70;87.90;;;;;;4974256;28;20592;-81
2022/05/02 07:26:22;;;;;;;6.77;6.17;;;28.20;84.40;;;;;;4903670;29;20642;-81
2022/05/02 07:28:49;;;;;;;7.50;6.73;;;28.40;81.40;;;;;;4976998;28;20598;-81
2022/05/02 07:31:24;;;;;;;6.63;6.13;;;28.40;76.70;;;;;;4994167;28;20924;-81
2022/05/02 07:33:54;;;;;;;8.63;6.77;;;28.40;73.70;;;;;;4975984;28;21011;-81
2022/05/02 07:36:24;;;;;;;7.40;6.70;;;28.70;73.20;;;;;;5011489;28;20608;-81
2022/05/02 07:38:59;;;;;;;7.27;6.60;;;29.10;72.00;;;;;;5006286;28;21194;-81
2022/05/02 07:41:25;;;;;;;6.00;5.50;;;29.50;70.10;;;;;;5004711;28;21104;-81
2022/05/02 07:44:07;;;;;;;5.83;5.33;;;29.90;69.30;;;;;;4992837;28;20637;-81
2022/05/02 07:46:42;;;;;;;6.33;5.73;;;30.30;66.10;;;;;;4992957;28;21067;-83
2022/05/02 07:49:09;;;;;;;5.70;5.20;;;30.80;65.30;;;;;;4974714;28;20728;-82
2022/05/02 07:51:47;;;;;;;5.63;5.13;;;31.20;64.10;;;;;;4994773;28;20634;-82
2022/05/02 07:54:23;;;;;;;4.53;4.13;;;31.60;61.40;;;;;;4993364;28;20680;-82
2022/05/02 07:56:51;;;;;;;7.03;5.00;;;32.00;59.70;;;;;;4957919;28;20708;-82
2022/05/02 07:59:28;;;;;;;5.70;5.20;;;32.40;59.40;;;;;;5007332;28;20644;-82
2022/05/02 08:01:56;;;;;;;4.90;4.50;;;32.70;57.60;;;;;;4981181;28;20591;-82
2022/05/02 08:04:22;;;;;;;5.43;4.93;;;33.00;56.40;;;;;;4975302;28;21006;-82
2022/05/02 08:07:13;;;;;;;5.57;5.07;;;33.20;55.30;;;;;;4995430;28;20620;-82
2022/05/02 08:09:41;;;;;;;5.57;5.03;;;33.40;54.10;;;;;;4976089;28;20726;-82
2022/05/02 08:12:07;;;;;;;5.20;4.80;;;33.60;54.00;;;;;;4993692;28;20591;-81
2022/05/02 08:15:01;;;;;;;5.40;4.90;;;33.90;53.10;;;;;;4976323;28;20915;-82
2022/05/02 08:17:48;;;;;;;6.07;5.53;;;34.20;52.70;;;;;;4976593;28;20567;-81
2022/05/02 08:20:31;;;;;;;5.90;4.93;;;34.40;51.00;;;;;;4988264;28;20580;-80
2022/05/02 08:29:22;;;;;;;5.27;4.77;;;34.80;48.60;;;;;;4993818;28;20629;-82
2022/05/02 08:31:59;;;;;;;6.80;6.20;;;34.90;47.70;;;;;;4979645;28;20602;-81
2022/05/02 08:34:39;;;;;;;5.70;5.20;;;34.90;47.50;;;;;;4996936;28;20563;-74
2022/05/02 08:37:25;;;;;;;6.57;6.07;;;34.90;46.80;;;;;;4994671;28;20639;-74
2022/05/02 08:40:17;;;;;;;7.97;7.27;;;35.00;46.50;;;;;;4976604;28;20607;-73
2022/05/02 08:43:02;;;;;;;6.40;5.80;;;34.90;45.80;;;;;;4994428;28;20752;-75
2022/05/02 08:45:49;;;;;;;5.93;5.43;;;35.00;46.40;;;;;;4977006;28;20731;-75
2022/05/02 08:48:43;;;;;;;6.60;6.10;;;35.20;45.80;;;;;;4966839;28;20691;-74
2022/05/02 08:51:32;;;;;;;9.20;5.23;;;35.50;45.90;;;;;;4976985;28;20566;-74
2022/05/02 08:54:36;;;;;;;5.83;5.33;;;35.60;45.10;;;;;;4997581;28;20588;-73
2022/05/02 08:57:50;;;;;;;6.30;5.80;;;35.70;44.60;;;;;;4975657;28;20984;-74
2022/05/02 09:00:34;;;;;;;10.00;6.10;;;35.80;44.60;;;;;;4993941;28;20578;-74
2022/05/02 09:03:38;;;;;;;6.17;5.60;;;36.00;44.00;;;;;;4998747;28;20590;-74
2022/05/02 09:06:28;;;;;;;6.57;5.97;;;36.10;44.20;;;;;;4972830;28;20613;-74
2022/05/02 09:09:24;;;;;;;7.50;5.60;;;36.20;43.30;;;;;;4993114;28;20682;-74
2022/05/02 09:12:12;;;;;;;6.83;6.20;;;36.30;43.20;;;;;;4993388;28;20596;-74
2022/05/02 09:14:56;;;;;;;6.87;6.30;;;36.50;42.10;;;;;;4994034;28;20558;-74
2022/05/02 09:17:56;;;;;;;7.40;6.80;;;36.50;41.90;;;;;;4994159;28;20594;-75
2022/05/02 09:20:40;;;;;;;6.90;5.73;;;36.50;41.30;;;;;;4993689;28;20944;-75
2022/05/02 09:23:21;;;;;;;6.90;6.33;;;36.50;41.80;;;;;;4960604;28;20574;-76
2022/05/02 09:26:20;;;;;;;6.37;5.77;;;36.40;41.20;;;;;;4975177;28;20602;-75
2022/05/02 09:29:29;;;;;;;7.00;6.17;;;36.50;41.30;;;;;;4993129;28;20633;-74
2022/05/02 09:32:03;;;;;;;7.20;6.60;;;36.40;40.30;;;;;;5012723;28;20573;-76
2022/05/02 09:34:47;;;;;;;6.70;5.97;;;36.30;39.50;;;;;;4995656;28;20973;-76
2022/05/02 09:37:39;;;;;;;6.80;5.97;;;36.10;39.70;;;;;;5012874;28;20607;-76
2022/05/02 09:40:10;;;;;;;8.50;6.90;;;36.00;39.80;;;;;;5012782;28;20930;-75
2022/05/02 09:42:59;;;;;;;8.40;7.70;;;35.90;39.50;;;;;;4995530;28;20634;-76
2022/05/02 09:51:19;;;;;;;6.03;5.57;;;36.20;39.80;;;;;;4993001;28;20576;-76
2022/05/02 09:57:21;;;;;;;5.33;4.80;;;36.40;39.80;;;;;;5012818;28;20190;-80
2022/05/02 10:02:44;;;;;;;4.80;4.03;;;36.70;38.20;;;;;;5007560;28;20582;-81
2022/05/02 10:05:17;;;;;;;6.63;4.67;;;36.70;38.70;;;;;;4990879;28;20601;-76
2022/05/02 10:07:58;;;;;;;5.10;4.70;;;36.80;38.20;;;;;;4979700;28;20699;-76
2022/05/02 10:10:39;;;;;;;6.87;4.63;;;36.90;37.70;;;;;;4992564;28;20600;-75
2022/05/02 10:13:23;;;;;;;4.57;4.17;;;36.90;37.20;;;;;;4991531;28;20938;-74
2022/05/02 10:16:36;;;;;;;5.77;5.00;;;36.90;37.60;;;;;;4992786;28;20602;-74
2022/05/02 10:19:43;;;;;;;6.73;5.20;;;36.90;37.90;;;;;;4991296;28;20585;-75
2022/05/02 10:22:31;;;;;;;5.07;4.50;;;36.90;37.20;;;;;;4929890;29;20596;-75
2022/05/02 10:25:01;;;;;;;5.67;5.17;;;36.80;36.40;;;;;;4913634;29;20614;-75
2022/05/02 10:27:38;;;;;;;5.20;4.80;;;36.60;36.10;;;;;;4959693;28;20645;-74
2022/05/02 10:30:13;;;;;;;5.07;4.63;;;36.50;36.10;;;;;;4980646;28;20646;-75
2022/05/02 10:32:53;;;;;;;7.13;6.40;;;36.30;36.00;;;;;;4986781;28;20636;-75
2022/05/02 10:35:21;;;;;;;7.03;5.20;;;36.10;35.30;;;;;;4989686;28;20573;-75
2022/05/02 10:38:00;;;;;;;6.17;5.67;;;35.50;35.50;;;;;;4991833;28;20652;-75
2022/05/02 10:40:50;;;;;;;5.97;5.37;;;35.10;35.60;;;;;;4980807;28;20617;-75
2022/05/02 10:43:24;;;;;;;5.50;4.57;;;34.90;36.10;;;;;;4958731;28;20582;-74
2022/05/02 10:45:51;;;;;;;4.53;4.13;;;34.70;36.20;;;;;;4974815;28;20600;-75
2022/05/02 10:48:19;;;;;;;5.27;4.27;;;34.40;36.90;;;;;;4991488;28;20630;-75
2022/05/02 10:51:05;;;;;;;5.63;4.47;;;34.30;37.00;;;;;;4991194;28;20172;-75
2022/05/02 10:53:53;;;;;;;5.27;4.77;;;34.20;37.50;;;;;;4972909;28;21005;-75
2022/05/02 10:56:34;;;;;;;4.60;4.20;;;34.10;36.90;;;;;;4974906;28;20659;-74
2022/05/02 10:59:03;;;;;;;4.43;4.13;;;34.00;37.10;;;;;;4978387;28;20953;-74
2022/05/02 11:02:04;;;;;;;8.63;5.90;;;34.00;37.10;;;;;;4974396;28;20931;-75
2022/05/02 11:05:00;;;;;;;5.33;4.83;;;33.90;36.90;;;;;;4992356;28;21170;-75
2022/05/02 11:08:05;;;;;;;5.50;5.00;;;33.80;36.60;;;;;;4990034;28;20957;-75
2022/05/02 11:10:46;;;;;;;4.70;4.20;;;33.60;37.30;;;;;;4991356;28;20601;-75
2022/05/02 11:13:40;;;;;;;6.37;4.50;;;33.60;36.60;;;;;;4973400;28;20624;-75
2022/05/02 11:16:18;;;;;;;4.53;4.17;;;33.50;37.40;;;;;;4983646;28;20609;-75
2022/05/02 11:22:08;;;;;;;7.23;4.83;;;33.20;36.80;;;;;;4991303;28;20906;-75
2022/05/02 11:24:37;;;;;;;5.90;4.80;;;33.10;36.70;;;;;;4991736;28;20583;-76
2022/05/02 11:27:25;;;;;;;4.70;4.30;;;33.00;37.30;;;;;;4994085;28;20647;-76
2022/05/02 11:30:09;;;;;;;5.50;4.70;;;32.90;37.70;;;;;;4985382;28;20659;-75
2022/05/02 11:33:05;;;;;;;4.87;4.40;;;33.00;37.60;;;;;;5003225;28;20583;-75
2022/05/02 11:35:35;;;;;;;4.17;3.77;;;33.00;37.70;;;;;;4973211;28;20586;-76
2022/05/02 11:38:07;;;;;;;5.57;4.67;;;33.20;37.60;;;;;;4991420;28;20592;-76
2022/05/02 11:40:41;;;;;;;6.07;5.17;;;33.30;37.70;;;;;;4977507;28;20616;-76
2022/05/02 11:43:09;;;;;;;6.00;4.80;;;33.30;37.50;;;;;;4992839;28;20592;-75
2022/05/02 11:45:43;;;;;;;7.13;5.30;;;33.30;37.50;;;;;;4982533;28;20588;-75
2022/05/02 11:48:21;;;;;;;5.30;4.80;;;33.30;37.00;;;;;;4972730;28;21166;-75
2022/05/02 11:50:48;;;;;;;5.63;4.60;;;33.10;37.00;;;;;;4987280;28;20683;-75
2022/05/02 11:53:16;;;;;;;4.93;4.43;;;32.90;36.90;;;;;;4990238;28;20674;-75
2022/05/02 11:55:46;;;;;;;5.30;4.80;;;32.70;36.90;;;;;;4973962;28;20936;-75
2022/05/02 11:58:25;;;;;;;5.83;5.23;;;32.30;36.60;;;;;;4971691;28;20613;-76
2022/05/02 12:00:53;;;;;;;7.10;6.47;;;31.70;36.50;;;;;;4958478;28;20692;-75
2022/05/02 12:03:24;;;;;;;7.13;6.37;;;31.20;36.50;;;;;;4985280;28;20596;-74
2022/05/02 12:05:55;;;;;;;6.20;5.70;;;30.60;36.50;;;;;;5011047;28;20598;-74
2022/05/02 12:08:32;;;;;;;5.37;4.87;;;30.20;37.10;;;;;;5000814;28;20713;-74
2022/05/02 12:11:08;;;;;;;7.70;5.50;;;29.60;37.30;;;;;;4987265;28;20599;-73
2022/05/02 12:13:35;;;;;;;6.77;5.80;;;29.20;37.40;;;;;;4982654;28;20574;-73
2022/05/02 12:16:03;;;;;;;6.30;5.37;;;28.70;37.60;;;;;;4994874;28;20701;-74
2022/05/02 12:18:48;;;;;;;5.73;5.17;;;28.40;38.20;;;;;;5001174;28;20581;-73
2022/05/02 12:21:24;;;;;;;8.80;5.30;;;28.10;38.90;;;;;;4976698;28;20604;-74
2022/05/02 12:23:52;;;;;;;7.57;5.90;;;27.90;39.20;;;;;;4998096;28;20600;-74
2022/05/02 12:26:21;;;;;;;6.80;6.10;;;27.70;39.60;;;;;;4990511;28;20648;-73
2022/05/02 12:28:53;;;;;;;5.20;4.70;;;27.50;39.60;;;;;;5007412;28;21045;-73
2022/05/02 12:31:28;;;;;;;7.73;6.27;;;27.40;39.70;;;;;;4968951;28;20604;-74
2022/05/02 12:34:11;;;;;;;7.47;6.57;;;27.20;40.00;;;;;;4998194;28;21208;-74
2022/05/02 12:36:47;;;;;;;5.87;5.27;;;27.20;40.50;;;;;;5011121;28;20712;-74
2022/05/02 12:39:17;;;;;;;5.30;4.60;;;27.20;40.80;;;;;;4978647;28;20597;-73
2022/05/02 12:41:50;;;;;;;4.33;4.03;;;27.30;40.80;;;;;;4976003;28;20616;-74
2022/05/02 12:44:24;;;;;;;5.10;4.60;;;27.20;41.00;;;;;;4960798;28;20617;-73
2022/05/02 12:46:53;;;;;;;4.63;4.23;;;27.10;40.70;;;;;;4959219;28;20757;-75
2022/05/02 12:49:26;;;;;;;7.80;4.90;;;27.10;40.60;;;;;;5003364;28;20636;-75
2022/05/02 12:51:54;;;;;;;8.10;4.17;;;26.90;40.80;;;;;;4976836;28;20688;-74
2022/05/02 12:54:26;;;;;;;6.20;5.07;;;26.80;40.80;;;;;;4993795;28;20582;-74
2022/05/02 13:02:51;;;;;;;7.13;5.80;;;26.40;40.90;;;;;;4993319;28;20589;-76
2022/05/02 13:05:22;;;;;;;7.53;6.90;;;26.30;40.90;;;;;;4993365;28;20585;-75
2022/05/02 13:08:02;;;;;;;6.43;5.83;;;26.10;41.10;;;;;;4960048;28;20625;-76
2022/05/02 13:10:29;;;;;;;6.67;4.67;;;25.90;41.70;;;;;;4994274;28;20602;-76
2022/05/02 13:13:06;;;;;;;5.63;5.07;;;25.80;41.30;;;;;;4998892;28;20596;-77
2022/05/02 13:15:43;;;;;;;5.70;4.87;;;25.80;42.10;;;;;;5001817;28;20981;-74
2022/05/02 13:18:15;;;;;;;6.70;5.20;;;25.70;42.00;;;;;;4993527;28;20605;-72
2022/05/02 13:21:11;;;;;;;7.63;6.10;;;25.50;42.20;;;;;;4991729;28;20578;-74
2022/05/02 13:23:42;;;;;;;8.37;5.13;;;25.40;42.10;;;;;;4992056;28;20727;-73
2022/05/02 13:26:17;;;;;;;7.23;5.60;;;25.40;42.10;;;;;;4991853;28;20997;-73
2022/05/02 13:29:02;;;;;;;5.93;4.87;;;25.30;42.50;;;;;;4993727;28;20613;-74
2022/05/02 13:31:40;;;;;;;5.50;4.87;;;25.20;42.40;;;;;;4989343;22;20731;-75
2022/05/02 13:34:13;;;;;;;6.33;4.77;;;25.20;42.60;;;;;;4997655;28;20697;-74
2022/05/02 13:36:43;;;;;;;6.33;5.60;;;25.10;42.40;;;;;;4994447;28;20570;-73
2022/05/02 13:39:15;;;;;;;5.60;4.87;;;25.00;42.60;;;;;;4986411;28;20591;-73
2022/05/02 13:41:51;;;;;;;8.97;6.70;;;24.90;42.80;;;;;;4961962;28;20997;-73
2022/05/02 13:44:25;;;;;;;8.60;5.77;;;24.70;42.90;;;;;;4977556;28;20675;-73
2022/05/02 13:47:00;;;;;;;14.93;5.77;;;24.60;42.90;;;;;;5003469;28;20648;-73
2022/05/02 13:49:34;;;;;;;4.60;4.20;;;24.50;42.90;;;;;;5006052;28;20655;-73
2022/05/02 13:52:25;;;;;;;5.57;4.70;;;24.30;42.80;;;;;;5001289;28;20963;-73
2022/05/02 13:54:54;;;;;;;5.73;5.23;;;24.20;43.10;;;;;;5003208;28;20577;-72
2022/05/02 13:57:25;;;;;;;7.90;6.53;;;24.10;42.90;;;;;;4988423;28;20581;-72
2022/05/02 14:01:21;;;;;;;6.60;5.60;;;24.00;43.00;;;;;;4979250;28;20590;-73
2022/05/02 14:03:25;;;;;;;6.97;4.10;;;23.90;43.30;;;;;;4974106;28;21219;-74